createdAt,value
2019-02-10T00:02:02.327Z,11.22
2019-02-10T00:05:46.954Z,11.05
2019-02-10T00:09:31.567Z,11.32
2019-02-10T00:13:35.981Z,10.98
2019-02-10T00:17:20.962Z,11.16
2019-02-10T00:21:05.603Z,11.35
2019-02-10T00:24:50.209Z,11.39
2019-02-10T00:28:34.809Z,11.57
2019-02-10T00:32:19.495Z,11.31
2019-02-10T00:35:57.356Z,11.18
2019-02-10T00:39:41.972Z,11.20
2019-02-10T00:43:27.009Z,11.46
2019-02-10T00:47:11.661Z,10.99
2019-02-10T00:50:56.575Z,11.14
2019-02-10T00:54:41.282Z,11.20
2019-02-10T00:58:25.903Z,11.07
2019-02-10T01:02:10.574Z,11.27
2019-02-10T01:05:55.276Z,11.57
2019-02-10T01:09:39.903Z,11.33
2019-02-10T01:13:24.639Z,11.05
2019-02-10T01:17:09.321Z,11.25
2019-02-10T01:20:53.967Z,11.44
2019-02-10T01:24:38.591Z,11.36
2019-02-10T01:28:23.574Z,11.37
2019-02-10T01:32:08.249Z,11.43
2019-02-10T01:35:45.545Z,11.17
2019-02-10T01:39:30.171Z,11.16
2019-02-10T01:43:14.822Z,11.19
2019-02-10T01:46:59.448Z,11.06
2019-02-10T01:50:44.052Z,10.71
2019-02-10T01:54:29.025Z,10.83
2019-02-10T01:58:13.646Z,10.64
2019-02-10T02:01:58.285Z,10.76
2019-02-10T02:09:38.877Z,10.53
2019-02-10T02:13:23.464Z,10.59
2019-02-10T02:17:08.411Z,10.34
2019-02-10T02:20:53.046Z,10.56
2019-02-10T02:24:37.677Z,10.54
2019-02-10T02:28:22.286Z,10.40
2019-02-10T02:32:06.895Z,10.51
2019-02-10T02:35:43.701Z,9.97
2019-02-10T02:39:28.350Z,10.13
2019-02-10T02:43:13.012Z,9.90
2019-02-10T02:46:57.957Z,9.78
2019-02-10T02:50:42.585Z,9.94
2019-02-10T02:54:27.186Z,9.49
2019-02-10T03:02:22.253Z,9.33
2019-02-10T03:06:06.900Z,9.66
2019-02-10T03:09:51.508Z,9.31
2019-02-10T03:13:36.141Z,9.40
2019-02-10T03:17:20.762Z,9.42
2019-02-10T03:21:05.379Z,9.52
2019-02-10T03:24:50.062Z,9.36
2019-02-10T03:28:34.699Z,9.44
2019-02-10T03:32:19.326Z,9.49
2019-02-10T03:35:56.712Z,9.27
2019-02-10T03:43:31.672Z,9.33
2019-02-10T03:47:16.243Z,9.38
2019-02-10T03:51:00.864Z,9.55
2019-02-10T03:54:45.461Z,9.36
2019-02-10T03:58:30.080Z,9.53
2019-02-10T04:02:14.697Z,9.20
2019-02-10T04:05:59.306Z,9.25
2019-02-10T04:09:43.924Z,9.26
2019-02-10T04:13:28.879Z,9.32
2019-02-10T04:24:54.249Z,9.23
2019-02-10T04:28:39.203Z,9.13
2019-02-10T04:32:23.806Z,9.32
2019-02-10T04:36:01.147Z,9.14
2019-02-10T04:43:35.571Z,9.45
2019-02-10T04:47:20.566Z,9.48
2019-02-10T04:51:05.182Z,9.23
2019-02-10T04:54:49.807Z,9.28
2019-02-10T05:02:37.963Z,9.59
2019-02-10T05:06:22.509Z,9.38
2019-02-10T05:13:58.010Z,9.57
2019-02-10T05:21:32.382Z,9.53
2019-02-10T05:29:01.508Z,9.61
2019-02-10T05:32:46.101Z,9.52
2019-02-10T05:36:23.026Z,9.20
2019-02-10T05:40:07.634Z,9.38
2019-02-10T05:43:52.594Z,9.26
2019-02-10T05:47:37.221Z,9.15
2019-02-10T05:51:21.813Z,9.09
2019-02-10T05:58:57.194Z,9.29
2019-02-10T06:02:42.053Z,9.18
2019-02-10T06:06:26.655Z,9.20
2019-02-10T06:10:11.637Z,9.43
2019-02-10T06:13:56.234Z,9.42
2019-02-10T06:17:40.847Z,9.67
2019-02-10T06:21:25.457Z,9.74
2019-02-10T06:29:00.608Z,9.66
2019-02-10T06:32:45.203Z,9.62
2019-02-10T06:36:22.222Z,9.79
2019-02-10T06:40:08.445Z,9.39
2019-02-10T06:43:53.098Z,9.57
2019-02-10T06:47:37.685Z,9.61
2019-02-10T06:51:22.500Z,9.70
2019-02-10T07:03:31.814Z,10.12
2019-02-10T07:07:16.421Z,10.15
2019-02-10T07:11:01.033Z,10.22
2019-02-10T07:14:45.625Z,10.25
2019-02-10T07:19:08.392Z,10.32
2019-02-10T07:22:55.958Z,10.25
2019-02-10T07:26:55.328Z,10.21
2019-02-10T07:30:49.606Z,10.22
2019-02-10T07:34:52.132Z,10.06
2019-02-10T07:38:59.396Z,9.89
2019-02-10T07:43:22.129Z,10.21
2019-02-10T07:52:10.683Z,10.23
2019-02-10T07:56:33.453Z,10.33
2019-02-10T08:00:56.191Z,10.34
2019-02-10T08:05:19.226Z,10.66
2019-02-10T08:09:35.297Z,10.45
2019-02-10T08:13:33.241Z,10.71
2019-02-10T08:17:59.065Z,10.71
2019-02-10T08:22:06.087Z,10.58
2019-02-10T08:26:28.897Z,10.90
2019-02-10T08:30:51.676Z,11.01
2019-02-10T08:34:53.752Z,11.33
2019-02-10T08:39:00.534Z,11.35
2019-02-10T08:43:23.345Z,11.53
2019-02-10T08:47:46.100Z,11.49
2019-02-10T08:52:08.901Z,11.25
2019-02-10T08:55:53.569Z,11.53
2019-02-10T08:59:38.431Z,11.56
2019-02-10T09:03:23.131Z,11.84
2019-02-10T09:10:38.715Z,12.04
2019-02-10T09:14:23.337Z,12.24
2019-02-10T09:18:07.953Z,12.16
2019-02-10T09:25:42.844Z,12.16
2019-02-10T09:29:27.459Z,12.21
2019-02-10T09:33:12.187Z,11.97
2019-02-10T09:36:49.555Z,11.92
2019-02-10T09:40:34.599Z,11.50
2019-02-10T09:44:19.231Z,11.52
2019-02-10T09:47:44.786Z,11.51
2019-02-10T09:51:29.530Z,11.41
2019-02-10T09:59:04.502Z,11.05
2019-02-10T10:02:49.432Z,11.19
2019-02-10T10:06:34.047Z,11.04
2019-02-10T10:10:18.666Z,11.01
2019-02-10T10:14:03.324Z,10.89
2019-02-10T10:21:51.493Z,11.14
2019-02-10T10:25:36.114Z,10.97
2019-02-10T10:29:20.708Z,11.29
2019-02-10T10:33:05.383Z,11.15
2019-02-10T10:36:42.741Z,11.02
2019-02-10T10:40:27.383Z,11.25
2019-02-10T10:44:11.962Z,11.08
2019-02-10T10:47:56.597Z,11.13
2019-02-10T10:51:41.562Z,10.97
2019-02-10T10:55:26.189Z,11.40
2019-02-10T10:59:10.768Z,11.59
2019-02-10T11:02:55.763Z,11.24
2019-02-10T11:06:40.517Z,11.10
2019-02-10T11:10:25.194Z,11.20
2019-02-10T11:14:28.627Z,11.36
2019-02-10T11:18:13.262Z,11.29
2019-02-10T11:21:58.128Z,11.26
2019-02-10T11:25:42.750Z,11.47
2019-02-10T11:29:27.299Z,11.63
2019-02-10T11:33:11.921Z,11.28
2019-02-10T11:36:48.890Z,11.18
2019-02-10T11:44:36.993Z,11.10
2019-02-10T11:48:21.631Z,11.36
2019-02-10T11:52:06.257Z,11.22
2019-02-10T11:55:50.878Z,11.08
2019-02-10T11:59:35.519Z,11.01
2019-02-10T12:03:20.498Z,10.95
2019-02-10T12:07:05.117Z,10.73
2019-02-10T12:10:49.731Z,10.69
2019-02-10T12:14:34.340Z,10.41
2019-02-10T12:22:22.767Z,10.34
2019-02-10T12:25:59.699Z,10.53
2019-02-10T12:29:44.285Z,10.34
2019-02-10T12:33:29.193Z,10.11
2019-02-10T12:37:13.799Z,10.46
2019-02-10T12:40:58.734Z,10.60
2019-02-10T12:44:43.301Z,10.17
2019-02-10T12:52:18.773Z,10.36
2019-02-10T12:56:03.389Z,10.05
2019-02-10T12:59:48.195Z,9.93
2019-02-10T13:07:03.701Z,10.07
2019-02-10T13:10:48.314Z,9.89
2019-02-10T13:14:33.036Z,10.41
2019-02-10T13:22:21.161Z,10.21
2019-02-10T13:26:01.698Z,10.46
2019-02-10T13:29:46.350Z,10.53
2019-02-10T13:33:30.975Z,10.70
2019-02-10T13:37:15.642Z,10.64
2019-02-10T13:41:00.243Z,10.71
2019-02-10T13:44:44.862Z,10.67
2019-02-10T13:48:29.476Z,10.82
2019-02-10T13:52:14.063Z,10.74
2019-02-10T13:55:58.701Z,10.73
2019-02-10T14:07:03.931Z,10.72
2019-02-10T14:10:48.662Z,10.88
2019-02-10T14:14:33.312Z,11.08
2019-02-10T14:18:18.079Z,10.88
2019-02-10T14:22:02.752Z,10.53
2019-02-10T14:25:40.001Z,10.52
2019-02-10T14:29:24.730Z,10.79
2019-02-10T14:33:09.404Z,10.97
2019-02-10T14:36:54.038Z,10.82
2019-02-10T14:40:38.659Z,10.45
2019-02-10T14:44:22.683Z,10.65
2019-02-10T14:48:07.557Z,10.56
2019-02-10T14:51:52.186Z,10.50
2019-02-10T14:55:36.800Z,9.92
2019-02-10T14:59:40.888Z,9.93
2019-02-10T15:03:25.521Z,9.91
2019-02-10T15:07:09.531Z,9.65
2019-02-10T15:10:47.022Z,9.86
2019-02-10T15:14:31.639Z,9.99
2019-02-10T15:22:52.156Z,10.10
2019-02-10T15:26:36.765Z,9.43
2019-02-10T15:30:21.873Z,9.54
2019-02-10T15:34:06.463Z,9.68
2019-02-10T15:37:51.151Z,9.80
2019-02-10T15:41:35.749Z,9.62
2019-02-10T15:45:20.404Z,9.61
2019-02-10T15:49:05.141Z,9.90
2019-02-10T15:53:08.608Z,9.40
2019-02-10T15:56:53.177Z,9.42
2019-02-10T16:00:37.861Z,9.78
2019-02-10T16:04:22.518Z,9.31
2019-02-10T16:08:07.410Z,9.26
2019-02-10T16:11:44.370Z,9.31
2019-02-10T16:15:29.009Z,9.29
2019-02-10T16:19:13.646Z,9.19
2019-02-10T16:22:58.529Z,8.93
2019-02-10T16:26:43.507Z,8.85
2019-02-10T16:34:18.700Z,8.96
2019-02-10T16:38:03.747Z,9.21
2019-02-10T16:41:48.386Z,8.89
2019-02-10T16:45:32.965Z,8.83
2019-02-10T16:49:17.636Z,8.54
2019-02-10T16:53:02.535Z,8.77
2019-02-10T16:56:47.141Z,8.65
2019-02-10T17:00:31.837Z,8.47
2019-02-10T17:04:16.499Z,8.40
2019-02-10T17:08:01.169Z,8.54
2019-02-10T17:15:34.968Z,8.13
2019-02-10T17:23:04.053Z,8.12
2019-02-10T17:26:48.814Z,8.07
2019-02-10T17:30:33.452Z,8.52
2019-02-10T17:34:18.081Z,8.49
2019-02-10T17:38:02.797Z,8.44
2019-02-10T17:41:48.722Z,8.33
2019-02-10T17:45:33.373Z,8.05
2019-02-10T17:49:18.048Z,7.87
2019-02-10T17:53:03.133Z,7.95
2019-02-10T17:56:47.750Z,7.68
2019-02-10T18:04:41.405Z,7.71
2019-02-10T18:08:45.613Z,7.97
2019-02-10T18:12:23.436Z,8.02
2019-02-10T18:16:26.986Z,7.95
2019-02-10T18:20:11.542Z,8.02
2019-02-10T18:24:15.034Z,7.89
2019-02-10T18:28:18.546Z,7.79
2019-02-10T18:32:42.603Z,8.09
2019-02-10T18:40:30.626Z,7.54
2019-02-10T18:44:34.151Z,7.85
2019-02-10T18:48:37.857Z,7.86
2019-02-10T18:52:28.175Z,7.84
2019-02-10T18:56:31.653Z,7.61
2019-02-10T19:00:35.434Z,7.34
2019-02-10T19:04:38.869Z,7.40
2019-02-10T19:08:42.930Z,7.04
2019-02-10T19:12:37.311Z,7.02
2019-02-10T19:16:32.694Z,7.04
2019-02-10T19:20:35.868Z,6.91
2019-02-10T19:24:20.723Z,6.92
2019-02-10T19:28:24.349Z,6.84
2019-02-10T19:32:08.824Z,6.55
2019-02-10T19:36:12.646Z,6.46
2019-02-10T19:39:57.159Z,6.51
2019-02-10T19:44:00.696Z,6.73
2019-02-10T19:48:04.174Z,6.52
2019-02-10T19:52:07.645Z,6.46
2019-02-10T19:56:11.152Z,6.62
2019-02-10T20:00:14.709Z,6.29
2019-02-10T20:04:18.258Z,6.47
2019-02-10T20:08:14.431Z,6.52
2019-02-10T20:12:13.517Z,6.11
2019-02-10T20:20:20.442Z,6.07
2019-02-10T20:24:14.474Z,6.03
2019-02-10T20:28:18.000Z,6.12
2019-02-10T20:32:21.529Z,5.99
2019-02-10T20:36:12.735Z,5.67
2019-02-10T20:40:16.272Z,6.06
2019-02-10T20:44:17.736Z,6.11
2019-02-10T20:48:05.228Z,6.09
2019-02-10T20:52:05.451Z,5.75
2019-02-10T20:56:09.146Z,5.57
2019-02-10T21:00:12.731Z,5.69
2019-02-10T21:04:16.239Z,5.88
2019-02-10T21:08:20.024Z,5.50
2019-02-10T21:12:23.663Z,5.54
2019-02-10T21:16:27.212Z,5.53
2019-02-10T21:20:24.653Z,5.19
2019-02-10T21:24:28.626Z,5.10
2019-02-10T21:28:32.123Z,5.08
2019-02-10T21:32:35.691Z,4.76
2019-02-10T21:36:39.335Z,4.72
2019-02-10T21:40:42.896Z,4.72
2019-02-10T21:44:33.045Z,4.93
2019-02-10T21:48:36.715Z,4.78
2019-02-10T21:52:14.873Z,4.63
2019-02-10T21:55:59.682Z,4.64
2019-02-10T21:59:45.297Z,4.55
2019-02-10T22:03:30.290Z,4.39
2019-02-10T22:07:15.137Z,4.75
2019-02-10T22:10:59.882Z,4.62
2019-02-10T22:14:44.745Z,4.94
2019-02-10T22:18:29.796Z,4.82
2019-02-10T22:22:14.613Z,4.82
2019-02-10T22:26:00.179Z,4.70
2019-02-10T22:29:44.938Z,4.74
2019-02-10T22:33:29.816Z,4.91
2019-02-10T22:37:33.959Z,4.98
2019-02-10T22:41:18.808Z,4.77
2019-02-10T22:45:03.559Z,4.88
2019-02-10T22:48:48.263Z,5.55
2019-02-10T22:52:25.311Z,5.34
2019-02-10T22:56:09.995Z,5.32
2019-02-10T22:59:54.697Z,5.34
2019-02-10T23:03:39.419Z,5.48
2019-02-10T23:07:24.258Z,5.37
2019-02-10T23:11:09.443Z,5.61
2019-02-10T23:14:54.132Z,5.94
2019-02-10T23:18:38.884Z,5.73
2019-02-10T23:22:23.577Z,5.83
2019-02-10T23:26:08.830Z,5.89
2019-02-10T23:29:53.509Z,5.71
2019-02-10T23:33:38.164Z,5.63
2019-02-10T23:37:22.924Z,5.93
2019-02-10T23:41:08.086Z,5.91
2019-02-10T23:44:52.879Z,5.80
2019-02-10T23:48:37.528Z,5.86
2019-02-10T23:52:14.433Z,6.25
2019-02-10T23:55:59.124Z,6.22
2019-02-10T23:59:43.844Z,6.33
